Main page
METAR-TAF:

METAR-TAF

Airports :

Amman Civil Airport

Amman, Jordan

latitude: 31-59N, longitude: 035-59E, elevation: 767 m

Current weather observation

The report was made 1 hour and 21 minutes ago, at 03:00 UTC
Calm wind
Temperature 18°C
Humidity 83%
Pressure 1016 hPa
Visibility: 5000 m
Few clouds at a height of 5000 ft
mist

METAR: OJAM 170300Z 00000KT 5000 BR FEW050 18/15 Q1016 NOSIG

Time: 07:21 (04:21 UTC)

Forecast

The report was made 6 hours and 57 minutes ago, at 21:24 UTC
Forecast valid from 17 at 00 UTC to 18 at 06 UTC
Wind 10 kt from the Northwest
Visibility: 5000 m
haze
Temporary
from 17 at 00 UTC to 17 at 06 UTC
Wind 2 kt from variable directions
Visibility: 3000 m
Few clouds at a height of 2500 ft
mist
Temporary
from 17 at 12 UTC to 17 at 20 UTC
Visibility: 4000 m
Few clouds at a height of 3500 ft
Scattered clouds at a height of 20000 ft
widespread dust

TAF: OJAM 162124Z 1700/1806 31010KT 5000 HZ NSC TEMPO 1700/1706 VRB02KT 3000 BR FEW025 TEMPO 1712/1720 4000 DU FEW035 SCT200

Weather observations and forecasts of more than 4000 airports (METAR and TAF reports).

The available stations are represented by yellow and red dots on the map.

Hover mouse over dot to see the name of the station.

Then click to see weather observations and forecasts.

To change the map : click on the green buttons with a black cross to zoom in, on the green button with a dash to zoom out, or on the green arrows for adjacent maps.


METAR-TAF: